Time;durP1;ratioP1;P1;durP2;ratioP2;P2;SDS_P1;SDS_P2;PMS_P1;PMS_P2;Temp;Humidity;BMP_temperature;BMP_pressure;BME280_temperature;BME280_humidity;BME280_pressure;Samples;Min_cycle;Max_cycle;Signal;HPM_P1;HPM_P2
2023/05/28 00:00:45;;;;;;;23.90;20.38;;;8.60;99.90;;;;;;4967023;28;20046;-72
2023/05/28 00:03:12;;;;;;;22.20;20.00;;;8.50;99.90;;;;;;4967541;28;20053;-71
2023/05/28 00:05:39;;;;;;;24.52;22.05;;;8.50;99.90;;;;;;4967895;28;20274;-72
2023/05/28 00:08:06;;;;;;;28.35;24.75;;;8.30;99.90;;;;;;4964646;28;20138;-71
2023/05/28 00:10:32;;;;;;;27.27;24.30;;;8.30;99.90;;;;;;4970214;28;20078;-71
2023/05/28 00:12:59;;;;;;;26.77;23.98;;;8.30;99.90;;;;;;4970996;28;20045;-73
2023/05/28 00:15:26;;;;;;;26.58;21.23;;;8.20;99.90;;;;;;4965931;28;20387;-71
2023/05/28 00:17:53;;;;;;;23.42;20.80;;;8.10;99.90;;;;;;4967953;28;20081;-72
2023/05/28 00:20:20;;;;;;;36.75;24.38;;;8.10;99.90;;;;;;4983564;28;20081;-71
2023/05/28 00:22:48;;;;;;;37.28;24.80;;;8.00;99.90;;;;;;4966745;28;20059;-72
2023/05/28 00:25:15;;;;;;;30.30;24.45;;;8.00;99.90;;;;;;4966697;28;20134;-73
2023/05/28 00:27:42;;;;;;;34.10;24.45;;;8.10;99.90;;;;;;4972368;28;20104;-71
2023/05/28 00:30:09;;;;;;;28.88;23.13;;;8.10;99.90;;;;;;4973301;28;20409;-72
2023/05/28 00:32:36;;;;;;;26.50;21.23;;;8.00;99.90;;;;;;4972489;28;20063;-73
2023/05/28 00:35:03;;;;;;;26.30;22.15;;;8.10;99.90;;;;;;4953583;28;20511;-71
2023/05/28 00:37:30;;;;;;;21.83;19.20;;;8.20;99.90;;;;;;4982129;28;20042;-74
2023/05/28 00:39:57;;;;;;;23.42;19.25;;;8.20;99.90;;;;;;4966562;28;20926;-71
2023/05/28 00:42:24;;;;;;;22.02;19.85;;;8.20;99.90;;;;;;4969566;28;20051;-73
2023/05/28 00:44:51;;;;;;;21.45;19.35;;;8.10;99.90;;;;;;4964091;28;20050;-73
2023/05/28 00:47:18;;;;;;;25.63;20.38;;;8.20;99.90;;;;;;4965855;28;20046;-71
2023/05/28 00:49:48;;;;;;;23.90;21.20;;;8.10;99.90;;;;;;4968082;28;20050;-74
2023/05/28 00:52:15;;;;;;;20.73;18.67;;;8.00;99.90;;;;;;4982929;28;20113;-71
2023/05/28 00:54:42;;;;;;;20.10;18.25;;;8.00;99.90;;;;;;4968286;28;20472;-73
2023/05/28 00:57:09;;;;;;;23.92;19.00;;;8.00;99.90;;;;;;4970125;28;20072;-73
2023/05/28 00:59:36;;;;;;;22.33;18.40;;;7.90;99.90;;;;;;4968747;28;20721;-74
2023/05/28 01:02:03;;;;;;;22.55;18.23;;;8.00;99.90;;;;;;4981398;28;20507;-74
2023/05/28 01:04:33;;;;;;;24.55;19.58;;;8.00;99.90;;;;;;4969886;28;20254;-71
2023/05/28 01:07:01;;;;;;;25.98;18.73;;;8.00;99.90;;;;;;4969745;28;20100;-73
2023/05/28 01:09:28;;;;;;;22.25;19.98;;;8.00;99.90;;;;;;4969751;28;20158;-73
2023/05/28 01:11:56;;;;;;;28.92;19.80;;;7.90;99.90;;;;;;4967717;28;20050;-72
2023/05/28 01:14:24;;;;;;;20.73;18.73;;;7.80;99.90;;;;;;4982106;28;20073;-72
2023/05/28 01:16:51;;;;;;;21.25;19.00;;;7.80;99.90;;;;;;4964750;28;20548;-73
2023/05/28 01:19:27;;;;;;;19.70;17.90;;;7.60;99.90;;;;;;4967118;28;20330;-72
2023/05/28 01:22:03;;;;;;;;;;;7.50;99.90;;;;;;4965892;28;20038;-73
2023/05/28 01:24:34;;;;;;;20.35;18.27;;;7.50;99.90;;;;;;4969536;28;19926;-71
2023/05/28 01:27:01;;;;;;;24.90;20.35;;;7.50;99.90;;;;;;4980376;28;20050;-71
2023/05/28 01:29:28;;;;;;;27.60;20.23;;;7.50;99.90;;;;;;4965254;28;20050;-71
2023/05/28 01:31:55;;;;;;;21.27;19.13;;;7.40;99.90;;;;;;4965332;28;20374;-70
2023/05/28 01:34:23;;;;;;;21.65;19.55;;;7.50;99.90;;;;;;4965065;28;20043;-72
2023/05/28 01:37:07;;;;;;;22.83;18.70;;;7.50;99.90;;;;;;4979048;28;20070;-72
2023/05/28 01:39:40;;;;;;;20.73;18.63;;;7.50;99.90;;;;;;4976469;28;20440;-71
2023/05/28 01:42:09;;;;;;;22.42;19.85;;;7.50;99.90;;;;;;4968756;28;20053;-71
2023/05/28 01:44:36;;;;;;;22.23;19.35;;;7.40;99.90;;;;;;4980440;28;20108;-70
2023/05/28 01:47:04;;;;;;;24.38;20.42;;;7.50;99.90;;;;;;4981472;28;20569;-73
2023/05/28 01:49:31;;;;;;;22.13;19.63;;;7.50;99.90;;;;;;4963720;28;20552;-72
2023/05/28 01:51:57;;;;;;;20.83;18.98;;;7.30;99.90;;;;;;4981410;28;20093;-71
2023/05/28 01:54:24;;;;;;;21.55;19.65;;;7.30;99.90;;;;;;4965097;28;20088;-71
2023/05/28 01:56:51;;;;;;;21.45;19.17;;;7.20;99.90;;;;;;4967575;28;20092;-72
2023/05/28 01:59:18;;;;;;;26.98;19.92;;;7.40;99.90;;;;;;4980196;28;20038;-72
2023/05/28 02:01:44;;;;;;;25.13;21.25;;;7.60;99.90;;;;;;4966723;28;20055;-71
2023/05/28 02:04:12;;;;;;;22.55;20.23;;;7.60;99.90;;;;;;4967276;28;20079;-70
2023/05/28 02:06:43;;;;;;;27.02;20.83;;;7.60;99.90;;;;;;4963018;28;20046;-72
2023/05/28 02:09:10;;;;;;;28.58;19.42;;;7.60;99.90;;;;;;4948774;28;20535;-71
2023/05/28 02:11:41;;;;;;;25.27;18.77;;;7.50;99.90;;;;;;4969368;28;20411;-71
2023/05/28 02:14:09;;;;;;;22.52;19.48;;;7.40;99.90;;;;;;4971623;28;20054;-70
2023/05/28 02:16:36;;;;;;;20.67;18.65;;;7.20;99.90;;;;;;4968335;28;20060;-71
2023/05/28 02:19:03;;;;;;;21.52;19.48;;;7.10;99.90;;;;;;4966657;28;20322;-73
2023/05/28 02:21:30;;;;;;;21.42;19.33;;;7.10;99.90;;;;;;4968558;28;20064;-70
2023/05/28 02:23:57;;;;;;;21.48;19.27;;;7.10;99.90;;;;;;4966341;28;22201;-72
2023/05/28 02:26:25;;;;;;;24.00;21.33;;;7.00;99.90;;;;;;4964607;28;20117;-73
2023/05/28 02:28:51;;;;;;;23.23;21.25;;;6.80;99.90;;;;;;4967785;28;20386;-71
2023/05/28 02:31:19;;;;;;;24.17;21.85;;;6.90;99.90;;;;;;4964467;28;20549;-71
2023/05/28 02:33:45;;;;;;;25.92;22.17;;;6.80;99.90;;;;;;4969573;28;20311;-71
2023/05/28 02:36:13;;;;;;;29.15;23.50;;;6.80;99.90;;;;;;4965692;28;20421;-73
2023/05/28 02:38:41;;;;;;;24.17;21.25;;;6.80;99.90;;;;;;4953100;28;20598;-73
2023/05/28 02:41:08;;;;;;;24.13;21.67;;;6.90;99.90;;;;;;4970141;28;20053;-71
2023/05/28 02:43:37;;;;;;;23.67;21.30;;;6.80;99.90;;;;;;4982534;28;20042;-71
2023/05/28 02:46:06;;;;;;;25.17;22.60;;;6.80;99.90;;;;;;4950571;28;20220;-70
2023/05/28 02:48:34;;;;;;;24.08;21.88;;;6.80;99.90;;;;;;4978179;28;20053;-72
2023/05/28 02:51:02;;;;;;;24.63;22.13;;;6.70;99.90;;;;;;4965655;28;20350;-71
2023/05/28 02:53:49;;;;;;;25.55;22.75;;;6.90;99.90;;;;;;4963914;28;20047;-71
2023/05/28 02:56:16;;;;;;;23.85;21.67;;;7.00;99.90;;;;;;4967587;28;20062;-70
2023/05/28 02:58:45;;;;;;;24.13;21.60;;;6.80;99.90;;;;;;4966543;28;20065;-71
2023/05/28 03:01:14;;;;;;;24.73;22.45;;;6.80;99.90;;;;;;4949060;28;20034;-74
2023/05/28 03:03:41;;;;;;;24.95;22.48;;;6.80;99.90;;;;;;4964717;28;20077;-73
2023/05/28 03:06:08;;;;;;;25.77;22.88;;;6.80;99.90;;;;;;4965275;28;20066;-71
2023/05/28 03:08:44;;;;;;;24.55;22.27;;;6.70;99.90;;;;;;4967500;28;20471;-71
2023/05/28 03:11:10;;;;;;;29.88;25.38;;;6.60;99.90;;;;;;4964206;28;20046;-71
2023/05/28 03:13:37;;;;;;;30.55;23.50;;;6.70;99.90;;;;;;4963750;28;20085;-74
2023/05/28 03:16:05;;;;;;;27.70;24.55;;;6.70;99.90;;;;;;4964633;28;20667;-71
2023/05/28 03:18:34;;;;;;;24.45;22.20;;;6.70;99.90;;;;;;4963835;28;20298;-70
2023/05/28 03:21:02;;;;;;;28.70;22.60;;;6.60;99.90;;;;;;4959441;28;20058;-71
2023/05/28 03:23:29;;;;;;;25.30;22.60;;;6.70;99.90;;;;;;4962905;28;20050;-71
2023/05/28 03:26:06;;;;;;;24.83;22.38;;;6.80;99.90;;;;;;4967017;28;20429;-71
2023/05/28 03:28:34;;;;;;;25.38;22.42;;;6.70;99.90;;;;;;4980750;28;20054;-72
2023/05/28 03:31:14;;;;;;;22.92;20.65;;;6.80;99.90;;;;;;4970717;28;20039;-72
2023/05/28 03:33:41;;;;;;;22.58;20.77;;;6.80;99.90;;;;;;4963035;28;20124;-71
2023/05/28 03:36:08;;;;;;;25.42;22.40;;;6.70;99.90;;;;;;4963064;28;20062;-72
2023/05/28 03:38:35;;;;;;;24.25;21.90;;;6.60;99.90;;;;;;4978972;28;20076;-73
2023/05/28 03:41:02;;;;;;;28.60;22.83;;;6.60;99.90;;;;;;4967043;28;20531;-72
2023/05/28 03:43:30;;;;;;;23.83;21.75;;;6.50;99.90;;;;;;4982760;28;20066;-72
2023/05/28 03:45:57;;;;;;;24.48;21.48;;;6.50;99.90;;;;;;4967916;28;20078;-71
2023/05/28 03:48:23;;;;;;;25.70;21.90;;;6.40;99.90;;;;;;4969208;28;20425;-71
2023/05/28 03:50:50;;;;;;;25.70;23.25;;;6.30;99.90;;;;;;4969644;28;20077;-72
2023/05/28 03:53:18;;;;;;;24.00;21.77;;;6.40;99.90;;;;;;4968679;28;20287;-71
2023/05/28 03:55:45;;;;;;;26.30;23.55;;;6.40;99.90;;;;;;4981839;28;20061;-72
2023/05/28 03:58:15;;;;;;;26.40;23.75;;;6.40;99.90;;;;;;4970494;28;20046;-70
2023/05/28 04:00:42;;;;;;;25.75;23.50;;;6.50;99.90;;;;;;4977315;28;20058;-71
2023/05/28 04:03:09;;;;;;;24.77;22.50;;;6.50;99.90;;;;;;4947298;28;20242;-71
2023/05/28 04:05:40;;;;;;;26.40;24.00;;;6.50;99.90;;;;;;4980797;28;20078;-72
2023/05/28 04:08:06;;;;;;;26.33;23.90;;;6.40;99.90;;;;;;4969646;28;20043;-71
2023/05/28 04:10:34;;;;;;;26.70;24.27;;;6.50;99.90;;;;;;4969253;28;20042;-71
2023/05/28 04:13:01;;;;;;;26.17;23.55;;;6.50;99.90;;;;;;4968341;28;20558;-71
2023/05/28 04:15:27;;;;;;;25.73;23.25;;;6.60;99.90;;;;;;4962722;28;20050;-72
2023/05/28 04:17:54;;;;;;;26.35;23.98;;;6.80;99.90;;;;;;4966960;28;20640;-72
2023/05/28 04:20:21;;;;;;;24.65;22.55;;;6.90;99.90;;;;;;4971441;28;20047;-71
2023/05/28 04:22:48;;;;;;;26.75;21.33;;;6.90;99.90;;;;;;4983735;28;20035;-72
2023/05/28 04:25:17;;;;;;;25.48;22.95;;;6.90;99.90;;;;;;4967350;28;20317;-71
2023/05/28 04:27:44;;;;;;;23.73;21.40;;;6.90;99.90;;;;;;4964671;28;20669;-71
2023/05/28 04:30:11;;;;;;;25.20;22.75;;;7.00;99.90;;;;;;4983911;28;20042;-70
2023/05/28 04:32:39;;;;;;;24.77;22.35;;;7.00;99.90;;;;;;4964880;28;20174;-71
2023/05/28 04:35:08;;;;;;;23.60;21.10;;;7.10;99.90;;;;;;4960852;28;20680;-71
2023/05/28 04:37:36;;;;;;;22.13;19.98;;;7.30;99.90;;;;;;4951072;28;20116;-70
2023/05/28 04:40:05;;;;;;;21.77;19.63;;;7.50;99.90;;;;;;4967618;28;20050;-71
2023/05/28 04:42:32;;;;;;;21.67;18.42;;;7.70;99.90;;;;;;4963776;28;20043;-72
2023/05/28 04:44:59;;;;;;;20.38;17.75;;;7.90;99.90;;;;;;4968248;28;20947;-73
2023/05/28 04:47:27;;;;;;;19.15;17.10;;;8.10;99.90;;;;;;4968504;28;20039;-71
2023/05/28 04:49:57;;;;;;;18.02;16.33;;;8.30;99.90;;;;;;4961878;28;20137;-71
2023/05/28 04:52:24;;;;;;;21.08;18.88;;;8.50;99.90;;;;;;4970124;28;20140;-72
2023/05/28 04:54:51;;;;;;;18.83;16.83;;;8.70;99.90;;;;;;4985101;28;20038;-71
2023/05/28 04:57:18;;;;;;;19.63;17.83;;;8.80;99.90;;;;;;4946362;28;20042;-72
2023/05/28 04:59:45;;;;;;;21.25;18.88;;;9.10;99.90;;;;;;4969147;28;20093;-71
2023/05/28 05:02:12;;;;;;;22.05;20.27;;;9.60;99.90;;;;;;4967565;28;20121;-71
2023/05/28 05:04:39;;;;;;;23.08;20.88;;;9.90;99.90;;;;;;4968141;28;20154;-72
2023/05/28 05:07:06;;;;;;;23.90;21.77;;;10.30;99.90;;;;;;4968277;28;20045;-71
2023/05/28 05:09:33;;;;;;;25.58;22.48;;;10.60;99.90;;;;;;4980689;28;20096;-73
2023/05/28 05:12:00;;;;;;;24.10;22.15;;;11.00;99.90;;;;;;4944432;28;20311;-71
2023/05/28 05:14:27;;;;;;;24.85;22.50;;;11.40;99.90;;;;;;4965542;28;20042;-70
2023/05/28 05:16:54;;;;;;;25.90;23.42;;;11.70;99.90;;;;;;4965430;28;20069;-72
2023/05/28 05:19:20;;;;;;;26.23;23.60;;;12.10;99.90;;;;;;4969133;28;20042;-72
2023/05/28 05:21:47;;;;;;;25.33;23.33;;;12.20;99.90;;;;;;4971049;28;21225;-72
2023/05/28 05:24:15;;;;;;;25.90;24.00;;;12.50;99.90;;;;;;4969038;28;20110;-71
2023/05/28 05:26:42;;;;;;;26.98;24.90;;;12.80;99.90;;;;;;4981006;28;20458;-71
2023/05/28 05:29:09;;;;;;;26.65;24.45;;;13.20;99.90;;;;;;4965334;28;20137;-71
2023/05/28 05:31:36;;;;;;;27.65;25.35;;;13.60;99.90;;;;;;4981468;28;20054;-71
2023/05/28 05:34:06;;;;;;;27.25;24.85;;;13.80;99.90;;;;;;4968379;28;20069;-72
2023/05/28 05:36:47;;;;;;;26.60;24.58;;;14.00;99.90;;;;;;4965848;28;20049;-72
2023/05/28 05:39:32;;;;;;;27.08;24.60;;;14.30;99.90;;;;;;4959407;28;20050;-71
2023/05/28 05:42:08;;;;;;;27.35;25.00;;;14.60;99.90;;;;;;4951807;28;20047;-71
2023/05/28 05:44:41;;;;;;;25.50;23.70;;;15.00;99.90;;;;;;4956593;28;20054;-72
2023/05/28 05:47:08;;;;;;;25.70;23.65;;;15.30;99.90;;;;;;4966851;28;20500;-72
2023/05/28 05:49:34;;;;;;;26.73;24.73;;;15.30;99.90;;;;;;4963378;28;20601;-70
2023/05/28 05:52:01;;;;;;;25.73;23.73;;;15.40;99.90;;;;;;4968924;28;20141;-70
2023/05/28 05:54:31;;;;;;;26.90;24.80;;;15.40;99.90;;;;;;4981392;28;20046;-70
2023/05/28 05:56:59;;;;;;;26.02;24.27;;;15.50;99.90;;;;;;4966756;28;20101;-72
2023/05/28 05:59:25;;;;;;;26.95;24.80;;;15.50;99.90;;;;;;4962574;28;20054;-71
2023/05/28 06:01:52;;;;;;;26.10;24.27;;;15.60;99.90;;;;;;4963854;28;20544;-71
2023/05/28 06:04:19;;;;;;;26.73;24.70;;;16.20;99.90;;;;;;4961837;28;20228;-71
2023/05/28 06:06:54;;;;;;;26.25;24.25;;;16.50;99.90;;;;;;4977884;28;20062;-71
2023/05/28 06:09:45;;;;;;;26.52;24.77;;;16.90;99.90;;;;;;4966250;28;20355;-71
2023/05/28 06:12:19;;;;;;;25.88;24.05;;;16.80;99.90;;;;;;4951227;28;20065;-71
2023/05/28 06:14:47;;;;;;;26.35;24.20;;;17.10;99.90;;;;;;4982068;28;20512;-70
2023/05/28 06:17:14;;;;;;;28.42;26.48;;;17.00;99.90;;;;;;4948965;28;20065;-70
2023/05/28 06:19:41;;;;;;;30.00;27.90;;;17.10;99.90;;;;;;4962732;28;20050;-72
2023/05/28 06:22:10;;;;;;;30.13;28.25;;;16.70;99.90;;;;;;4965084;28;20039;-70
2023/05/28 06:24:39;;;;;;;29.85;28.10;;;16.70;99.90;;;;;;4965176;28;20394;-70
2023/05/28 06:27:08;;;;;;;32.42;30.15;;;16.90;99.90;;;;;;4965755;28;20038;-72
2023/05/28 06:29:34;;;;;;;33.55;31.00;;;16.90;99.90;;;;;;4947451;28;20134;-72
2023/05/28 06:32:01;;;;;;;32.55;30.73;;;16.80;99.90;;;;;;4966711;28;20136;-70
2023/05/28 06:34:29;;;;;;;33.17;31.08;;;17.10;99.90;;;;;;4950307;28;20057;-70
2023/05/28 06:36:56;;;;;;;32.83;30.77;;;17.00;99.90;;;;;;4962529;28;20684;-69
2023/05/28 06:39:23;;;;;;;31.52;29.52;;;16.90;99.90;;;;;;4965038;28;20039;-70
2023/05/28 06:41:51;;;;;;;33.33;31.38;;;17.00;99.90;;;;;;4961998;28;20500;-71
2023/05/28 06:44:21;;;;;;;33.15;30.83;;;16.90;99.90;;;;;;4947421;28;20047;-72
2023/05/28 06:47:03;;;;;;;32.92;31.00;;;16.90;99.90;;;;;;4982383;28;20295;-71
2023/05/28 06:49:30;;;;;;;33.85;31.88;;;16.80;99.90;;;;;;4965030;28;20271;-72
2023/05/28 06:51:58;;;;;;;35.30;33.15;;;17.10;99.90;;;;;;4961623;28;20247;-71
2023/05/28 06:54:25;;;;;;;35.58;33.17;;;17.30;99.90;;;;;;4961759;28;20069;-71
2023/05/28 06:56:51;;;;;;;37.05;34.55;;;17.30;99.90;;;;;;4961338;28;20066;-72
2023/05/28 06:59:41;;;;;;;34.70;32.50;;;17.20;99.90;;;;;;4976450;28;20101;-72
2023/05/28 07:02:37;;;;;;;34.63;32.55;;;17.20;99.90;;;;;;4965283;28;20051;-70
2023/05/28 07:05:24;;;;;;;32.97;30.98;;;17.20;99.90;;;;;;4966698;28;20046;-71
2023/05/28 07:07:52;;;;;;;36.25;33.75;;;17.10;99.90;;;;;;4964713;28;20051;-71
2023/05/28 07:10:18;;;;;;;34.97;32.28;;;17.30;99.90;;;;;;4963188;28;20288;-70
2023/05/28 07:12:45;;;;;;;35.67;33.47;;;18.00;99.90;;;;;;4965121;28;20138;-73
2023/05/28 07:15:12;;;;;;;33.95;31.98;;;18.10;99.90;;;;;;4963046;28;20129;-72
2023/05/28 07:17:39;;;;;;;36.70;34.42;;;18.00;99.90;;;;;;4966736;28;20054;-72
2023/05/28 07:20:08;;;;;;;36.38;34.10;;;18.00;99.90;;;;;;4971505;28;20043;-71
2023/05/28 07:22:48;;;;;;;35.30;33.15;;;18.40;99.90;;;;;;4965712;28;20106;-72
2023/05/28 07:25:15;;;;;;;35.47;33.38;;;18.70;99.90;;;;;;4965307;28;20042;-72
2023/05/28 07:27:42;;;;;;;37.90;35.60;;;18.70;99.90;;;;;;4983200;28;20043;-72
2023/05/28 07:30:10;;;;;;;37.80;35.50;;;18.50;99.90;;;;;;4968529;28;20046;-71
2023/05/28 07:32:37;;;;;;;37.83;35.42;;;18.30;99.90;;;;;;4967839;28;20058;-72
2023/05/28 07:35:05;;;;;;;38.42;36.08;;;18.60;99.90;;;;;;4983183;28;20456;-72
2023/05/28 07:37:32;;;;;;;40.15;37.63;;;18.50;99.90;;;;;;4966734;28;20499;-72
2023/05/28 07:39:59;;;;;;;39.55;36.97;;;18.60;99.90;;;;;;4965796;28;21157;-71
2023/05/28 07:42:26;;;;;;;39.53;36.88;;;18.80;99.90;;;;;;4965676;28;20045;-72
2023/05/28 07:45:01;;;;;;;38.58;36.28;;;19.00;99.90;;;;;;4969443;28;20038;-72
2023/05/28 07:47:27;;;;;;;38.92;36.58;;;18.80;99.90;;;;;;4967028;28;20531;-72
2023/05/28 07:49:57;;;;;;;40.03;37.60;;;18.70;99.90;;;;;;4964331;28;20125;-72
2023/05/28 07:52:35;;;;;;;39.67;37.47;;;18.80;99.90;;;;;;4969006;28;20133;-72
2023/05/28 07:55:03;;;;;;;41.60;39.13;;;18.60;99.90;;;;;;4966736;28;20061;-72
2023/05/28 07:57:30;;;;;;;38.42;36.05;;;18.60;99.90;;;;;;4950827;28;20698;-71
2023/05/28 07:59:57;;;;;;;41.13;38.60;;;18.60;99.90;;;;;;4966944;28;20385;-72
2023/05/28 08:02:24;;;;;;;40.97;38.28;;;19.20;99.90;;;;;;4969736;28;20509;-71
2023/05/28 08:04:51;;;;;;;40.60;38.17;;;19.00;99.90;;;;;;4966029;28;20106;-71
2023/05/28 08:07:18;;;;;;;39.35;37.08;;;18.80;99.90;;;;;;4967573;28;20053;-70
2023/05/28 08:09:45;;;;;;;39.70;37.20;;;19.20;99.90;;;;;;4962603;28;20042;-70
2023/05/28 08:12:15;;;;;;;40.53;38.13;;;19.10;99.90;;;;;;4968171;28;20137;-71
2023/05/28 08:14:41;;;;;;;40.03;37.67;;;19.10;99.90;;;;;;4969976;28;20057;-71
2023/05/28 08:17:09;;;;;;;42.85;40.25;;;18.80;99.90;;;;;;4950846;28;20051;-71
2023/05/28 08:19:45;;;;;;;43.25;40.63;;;19.10;99.90;;;;;;4967101;28;20066;-70
2023/05/28 08:22:44;;;;;;;43.17;40.45;;;19.40;99.90;;;;;;4969587;28;20046;-70
2023/05/28 08:25:10;;;;;;;39.63;37.22;;;19.30;99.90;;;;;;4968488;28;20133;-72
2023/05/28 08:27:38;;;;;;;43.75;41.25;;;19.00;99.90;;;;;;4970550;28;20159;-72
2023/05/28 08:30:05;;;;;;;41.15;38.67;;;18.90;99.90;;;;;;4960450;28;20074;-73
2023/05/28 08:32:39;;;;;;;38.88;36.58;;;19.50;99.90;;;;;;4973125;28;20060;-73
2023/05/28 08:35:06;;;;;;;42.28;39.50;;;19.60;99.90;;;;;;4964518;28;20058;-72
2023/05/28 08:37:33;;;;;;;39.58;37.38;;;20.30;99.90;;;;;;4969234;28;20046;-72
2023/05/28 08:40:08;;;;;;;41.23;38.60;;;20.60;99.90;;;;;;4968704;28;20056;-73
2023/05/28 08:42:36;;;;;;;41.72;39.17;;;20.40;99.90;;;;;;4981552;28;20207;-72
2023/05/28 08:45:04;;;;;;;40.70;38.35;;;20.80;99.90;;;;;;4967742;28;20212;-71
2023/05/28 08:47:33;;;;;;;42.80;40.20;;;20.80;99.90;;;;;;4968188;28;20052;-72
2023/05/28 08:50:08;;;;;;;45.10;42.40;;;20.60;99.90;;;;;;4949561;28;20659;-73
2023/05/28 08:52:46;;;;;;;43.20;40.83;;;20.50;99.90;;;;;;4967931;28;20516;-70
2023/05/28 08:55:13;;;;;;;42.22;39.50;;;20.30;99.90;;;;;;4967360;28;20470;-71
2023/05/28 08:57:46;;;;;;;40.90;38.50;;;20.30;99.90;;;;;;4971460;28;20157;-69
2023/05/28 09:00:13;;;;;;;42.38;39.85;;;20.40;99.90;;;;;;4965859;28;20046;-71
2023/05/28 09:03:16;;;;;;;40.65;38.05;;;20.60;99.90;;;;;;4965435;28;20564;-70
2023/05/28 09:05:45;;;;;;;41.35;38.80;;;19.90;99.90;;;;;;4968984;28;20042;-71
2023/05/28 09:08:12;;;;;;;43.30;40.35;;;19.70;99.90;;;;;;4953860;28;20320;-73
2023/05/28 09:10:42;;;;;;;40.40;38.28;;;19.90;99.90;;;;;;4971353;28;20523;-71
2023/05/28 09:13:10;;;;;;;43.03;40.33;;;20.50;99.90;;;;;;4968023;28;20184;-72
2023/05/28 09:15:37;;;;;;;43.05;40.55;;;20.80;99.90;;;;;;4948175;28;20488;-71
2023/05/28 09:18:07;;;;;;;43.95;41.17;;;21.30;99.90;;;;;;4968543;28;20100;-71
2023/05/28 09:20:35;;;;;;;42.00;39.60;;;21.30;99.90;;;;;;4963435;28;20061;-74
2023/05/28 09:23:06;;;;;;;42.00;39.50;;;20.50;99.90;;;;;;4977586;28;20336;-72
2023/05/28 09:25:56;;;;;;;42.83;40.22;;;20.70;99.90;;;;;;4962842;28;20054;-71
2023/05/28 09:28:29;;;;;;;43.00;40.30;;;20.90;99.90;;;;;;4968227;28;20262;-70
2023/05/28 09:31:05;;;;;;;43.72;41.08;;;21.10;99.90;;;;;;4986074;28;20048;-71
2023/05/28 09:33:33;;;;;;;44.20;41.90;;;21.40;99.90;;;;;;4993746;28;20046;-71
2023/05/28 09:36:01;;;;;;;45.78;43.10;;;21.70;99.90;;;;;;4982023;28;20059;-72
2023/05/28 09:38:41;;;;;;;44.67;41.95;;;21.90;99.90;;;;;;4965469;28;20057;-72
2023/05/28 09:41:22;;;;;;;44.08;41.47;;;22.10;99.90;;;;;;4964925;28;21586;-71
2023/05/28 09:44:00;;;;;;;44.70;41.90;;;22.20;99.90;;;;;;4966572;28;20042;-70
2023/05/28 09:46:29;;;;;;;44.22;41.72;;;21.90;99.90;;;;;;4968040;28;20538;-72
2023/05/28 09:48:56;;;;;;;47.63;44.70;;;21.90;99.90;;;;;;4963158;28;20053;-72
2023/05/28 09:51:31;;;;;;;43.97;41.67;;;22.00;99.90;;;;;;4965968;28;20062;-72
2023/05/28 09:54:03;;;;;;;45.75;42.85;;;22.10;99.90;;;;;;4961991;28;20041;-72
2023/05/28 09:56:31;;;;;;;43.70;41.40;;;22.60;99.90;;;;;;4966508;28;20686;-72
2023/05/28 09:59:02;;;;;;;45.00;42.60;;;23.20;99.90;;;;;;4962409;28;20492;-72
2023/05/28 10:01:56;;;;;;;45.33;42.90;;;23.30;99.90;;;;;;4965238;28;20042;-72
2023/05/28 10:04:35;;;;;;;48.10;45.30;;;23.10;99.90;;;;;;4962478;28;20045;-73
2023/05/28 10:07:05;;;;;;;38.75;36.35;;;22.60;99.90;;;;;;4960516;28;20500;-72
2023/05/28 10:09:33;;;;;;;46.88;44.10;;;22.70;99.90;;;;;;4964008;28;20476;-72
2023/05/28 10:12:12;;;;;;;45.03;42.53;;;22.70;99.90;;;;;;4980804;28;20042;-71
2023/05/28 10:14:40;;;;;;;48.25;45.55;;;22.80;99.90;;;;;;4968106;28;20046;-72
2023/05/28 10:17:08;;;;;;;48.47;45.95;;;22.70;99.90;;;;;;4962586;28;20049;-71
2023/05/28 10:19:37;;;;;;;49.13;46.45;;;23.20;99.90;;;;;;4982962;28;20050;-72
2023/05/28 10:22:04;;;;;;;45.60;42.97;;;22.80;99.90;;;;;;4965157;28;20110;-72
2023/05/28 10:24:32;;;;;;;47.78;45.17;;;22.90;99.90;;;;;;4967990;28;20046;-73
2023/05/28 10:27:00;;;;;;;48.00;45.28;;;22.00;99.90;;;;;;4962364;28;20050;-74
2023/05/28 10:29:27;;;;;;;47.22;44.58;;;22.00;99.90;;;;;;4960263;28;20527;-72
2023/05/28 10:32:02;;;;;;;46.70;44.15;;;22.00;99.90;;;;;;4960493;28;20066;-72
2023/05/28 10:34:33;;;;;;;45.55;43.05;;;22.60;99.90;;;;;;4966104;28;20097;-72
2023/05/28 10:37:02;;;;;;;47.78;45.17;;;22.80;99.90;;;;;;4962817;28;20113;-72
2023/05/28 10:39:43;;;;;;;46.40;43.70;;;22.90;99.90;;;;;;4957890;28;20042;-72
2023/05/28 10:42:13;;;;;;;49.00;45.88;;;21.80;99.90;;;;;;4961986;28;20133;-70
2023/05/28 10:45:06;;;;;;;47.67;44.85;;;21.80;99.90;;;;;;4967762;28;20050;-71
2023/05/28 10:47:35;;;;;;;47.67;44.72;;;22.60;99.90;;;;;;4964250;28;20413;-73
2023/05/28 10:50:15;;;;;;;48.83;46.22;;;22.00;99.90;;;;;;4964736;28;20046;-71
2023/05/28 10:53:06;;;;;;;47.03;44.35;;;22.50;99.90;;;;;;4965495;28;20054;-71
2023/05/28 10:55:50;;;;;;;46.90;44.20;;;23.00;99.90;;;;;;4965851;28;20042;-71
2023/05/28 10:58:35;;;;;;;48.30;45.50;;;23.40;99.90;;;;;;4964854;28;20593;-70
2023/05/28 11:01:09;;;;;;;50.72;48.17;;;22.90;99.90;;;;;;4966207;28;20046;-71
2023/05/28 11:03:44;;;;;;;51.25;48.55;;;22.70;99.90;;;;;;4965610;28;20046;-71
2023/05/28 11:06:12;;;;;;;50.97;48.28;;;22.40;99.90;;;;;;4964067;28;20440;-71
2023/05/28 11:08:42;;;;;;;52.65;49.92;;;22.40;99.90;;;;;;4966509;28;20047;-71
2023/05/28 11:11:13;;;;;;;51.60;48.58;;;22.00;99.90;;;;;;4962477;28;20104;-72
2023/05/28 11:13:45;;;;;;;53.08;50.25;;;22.00;99.90;;;;;;4967434;28;20480;-71
2023/05/28 11:16:13;;;;;;;49.95;47.35;;;22.80;99.90;;;;;;4964328;28;20042;-71
2023/05/28 11:19:01;;;;;;;52.45;49.63;;;23.40;99.90;;;;;;4966074;28;20054;-72
2023/05/28 11:21:27;;;;;;;52.85;49.97;;;23.10;99.90;;;;;;4965334;28;20638;-72
2023/05/28 11:24:05;;;;;;;54.03;51.00;;;22.90;99.90;;;;;;4963251;28;20109;-73
2023/05/28 11:26:32;;;;;;;52.22;49.22;;;22.60;99.90;;;;;;4960414;28;20051;-73
2023/05/28 11:29:00;;;;;;;52.80;49.90;;;22.70;99.90;;;;;;4978497;28;20088;-73
2023/05/28 11:31:28;;;;;;;53.70;50.72;;;22.70;99.90;;;;;;4965268;28;20039;-71
2023/05/28 11:33:56;;;;;;;51.83;48.97;;;22.80;99.90;;;;;;4975126;28;20043;-71
2023/05/28 11:36:23;;;;;;;52.47;49.65;;;23.20;99.90;;;;;;4966425;28;20567;-73
2023/05/28 11:39:03;;;;;;;51.25;48.55;;;22.90;99.90;;;;;;4962894;28;20532;-72
2023/05/28 11:41:30;;;;;;;49.20;46.60;;;22.40;99.90;;;;;;4963505;28;20058;-72
2023/05/28 11:43:58;;;;;;;51.92;49.13;;;23.00;99.90;;;;;;4966084;28;20180;-71
2023/05/28 11:46:24;;;;;;;52.10;49.13;;;23.50;99.90;;;;;;4964671;28;20047;-73
2023/05/28 11:48:51;;;;;;;51.72;48.72;;;22.60;99.90;;;;;;4952863;28;20141;-73
2023/05/28 11:51:21;;;;;;;52.08;49.42;;;22.70;99.90;;;;;;4963193;28;20046;-71
2023/05/28 11:53:48;;;;;;;53.08;50.15;;;22.60;99.90;;;;;;4963422;28;20082;-72
2023/05/28 11:56:15;;;;;;;53.50;50.47;;;22.70;99.90;;;;;;4961951;28;20042;-72
2023/05/28 11:58:48;;;;;;;52.78;49.90;;;23.00;99.90;;;;;;4963564;28;20117;-71
2023/05/28 12:01:15;;;;;;;51.05;48.35;;;23.60;99.90;;;;;;4981177;28;20078;-71
2023/05/28 12:03:42;;;;;;;50.42;47.53;;;23.90;99.90;;;;;;4967226;28;20312;-73
2023/05/28 12:06:11;;;;;;;51.50;48.60;;;24.40;99.90;;;;;;4967837;28;20058;-72
2023/05/28 12:08:40;;;;;;;52.80;49.90;;;24.80;99.90;;;;;;4986476;28;20499;-72
2023/05/28 12:11:10;;;;;;;51.92;49.03;;;24.30;99.90;;;;;;4963147;28;20066;-72
2023/05/28 12:13:39;;;;;;;54.22;51.20;;;23.90;99.90;;;;;;4968860;28;20583;-71
2023/05/28 12:16:12;;;;;;;54.97;51.70;;;23.40;99.90;;;;;;4961932;28;20051;-72
2023/05/28 12:18:40;;;;;;;55.35;52.42;;;23.10;99.90;;;;;;4968304;28;20050;-72
2023/05/28 12:21:18;;;;;;;55.05;51.78;;;23.50;99.90;;;;;;4961314;28;20055;-71
2023/05/28 12:23:46;;;;;;;54.28;51.47;;;23.20;99.90;;;;;;4974037;28;20548;-72
2023/05/28 12:26:14;;;;;;;54.42;51.55;;;23.40;99.90;;;;;;4982579;28;20658;-71
2023/05/28 12:28:41;;;;;;;56.33;52.80;;;23.80;99.90;;;;;;4967856;28;20053;-71
2023/05/28 12:31:08;;;;;;;55.72;52.72;;;24.10;99.90;;;;;;4967698;28;20039;-71
2023/05/28 12:33:36;;;;;;;55.00;52.10;;;24.00;99.90;;;;;;4970784;28;20043;-71
2023/05/28 12:36:03;;;;;;;57.65;54.55;;;23.30;99.90;;;;;;4967095;28;20078;-70
2023/05/28 12:38:30;;;;;;;54.08;51.28;;;22.60;99.90;;;;;;4968876;28;20042;-72
2023/05/28 12:40:58;;;;;;;55.72;52.67;;;23.30;99.90;;;;;;4967387;28;20079;-72
2023/05/28 12:43:25;;;;;;;54.97;51.97;;;23.20;99.90;;;;;;4966834;28;20043;-73